Time;durP1;ratioP1;P1;durP2;ratioP2;P2;SDS_P1;SDS_P2;PMS_P1;PMS_P2;Temp;Humidity;BMP_temperature;BMP_pressure;BME280_temperature;BME280_humidity;BME280_pressure;Samples;Min_cycle;Max_cycle;Signal;HPM_P1;HPM_P2
2022/10/13 00:01:44;;;;;;;0.85;0.80;;;20.40;63.50;;;;;;4954180;28;20094;-45
2022/10/13 00:04:09;;;;;;;0.95;0.85;;;20.50;63.40;;;;;;4955607;28;20470;-57
2022/10/13 00:06:35;;;;;;;0.60;0.60;;;20.40;64.20;;;;;;4951405;28;20515;-50
2022/10/13 00:09:01;;;;;;;0.60;0.60;;;20.40;63.40;;;;;;4956423;28;20109;-54
2022/10/13 00:11:27;;;;;;;0.80;0.70;;;20.40;64.20;;;;;;4957616;28;20112;-51
2022/10/13 00:13:57;;;;;;;0.90;0.90;;;20.40;63.50;;;;;;4959155;28;20097;-50
2022/10/13 00:16:23;;;;;;;0.90;0.85;;;20.50;63.60;;;;;;4962099;28;20042;-51
2022/10/13 00:18:48;;;;;;;1.05;0.80;;;20.40;63.60;;;;;;4956268;28;20054;-48
2022/10/13 00:21:16;;;;;;;1.73;0.60;;;20.30;63.80;;;;;;4964163;28;20043;-55
2022/10/13 00:23:42;;;;;;;0.82;0.80;;;20.30;63.70;;;;;;4954446;28;20039;-48
2022/10/13 00:26:09;;;;;;;0.60;0.60;;;20.30;63.70;;;;;;4963715;28;20086;-51
2022/10/13 00:28:35;;;;;;;0.90;0.80;;;20.40;63.60;;;;;;4952618;28;20039;-44
2022/10/13 00:31:01;;;;;;;0.52;0.52;;;20.30;63.60;;;;;;4952842;28;20509;-55
2022/10/13 00:33:26;;;;;;;0.63;0.63;;;20.40;63.80;;;;;;4953346;28;20045;-51
2022/10/13 00:35:52;;;;;;;0.60;0.60;;;20.40;63.50;;;;;;4955301;28;20038;-47
2022/10/13 00:38:18;;;;;;;0.50;0.50;;;20.40;63.60;;;;;;4951130;28;20517;-44
2022/10/13 00:40:45;;;;;;;0.75;0.75;;;20.30;63.90;;;;;;4952078;28;20047;-51
2022/10/13 00:43:16;;;;;;;0.70;0.70;;;20.30;63.80;;;;;;4953195;28;20110;-56
2022/10/13 00:45:41;;;;;;;1.08;0.57;;;20.30;63.60;;;;;;4951224;28;20130;-55
2022/10/13 00:48:07;;;;;;;0.63;0.63;;;20.40;63.60;;;;;;4954740;28;20138;-58
2022/10/13 00:50:36;;;;;;;0.70;0.65;;;20.30;63.80;;;;;;4953131;28;20035;-51
2022/10/13 00:53:01;;;;;;;0.60;0.60;;;20.30;63.80;;;;;;4936912;28;20051;-51
2022/10/13 00:55:29;;;;;;;0.70;0.70;;;20.30;63.90;;;;;;4954095;28;20540;-50
2022/10/13 00:57:57;;;;;;;0.57;0.57;;;20.30;63.90;;;;;;4953426;28;20074;-47
2022/10/13 01:00:23;;;;;;;1.35;0.73;;;20.30;63.80;;;;;;4956571;28;22086;-43
2022/10/13 01:02:48;;;;;;;1.40;0.60;;;20.30;63.80;;;;;;4950951;28;20098;-51
2022/10/13 01:05:15;;;;;;;0.70;0.70;;;20.30;63.70;;;;;;4953384;28;20043;-45
2022/10/13 01:07:40;;;;;;;0.50;0.40;;;20.30;63.80;;;;;;4984086;28;20047;-56
2022/10/13 01:10:06;;;;;;;0.70;0.70;;;20.30;63.70;;;;;;4953591;28;20070;-54
2022/10/13 01:12:58;;;;;;;0.75;0.68;;;20.30;63.80;;;;;;4952201;28;20138;-55
2022/10/13 01:15:33;;;;;;;0.60;0.60;;;20.30;63.70;;;;;;4949633;28;20804;-54
2022/10/13 01:18:17;;;;;;;0.57;0.57;;;20.30;63.80;;;;;;4954416;28;20038;-58
2022/10/13 01:20:48;;;;;;;0.60;0.60;;;20.30;63.60;;;;;;4952061;28;20047;-58
2022/10/13 01:23:32;;;;;;;0.47;0.45;;;20.30;63.70;;;;;;4968860;28;20043;-58
2022/10/13 01:26:23;;;;;;;0.77;0.75;;;20.30;64.00;;;;;;4953764;28;20026;-57
2022/10/13 01:29:33;;;;;;;0.73;0.68;;;20.30;63.90;;;;;;4954798;28;20398;-52
2022/10/13 01:32:34;;;;;;;1.25;0.60;;;20.30;63.90;;;;;;4946261;28;20035;-55
2022/10/13 01:35:31;;;;;;;0.47;0.40;;;20.30;64.00;;;;;;4937553;29;20052;-56
2022/10/13 01:38:25;;;;;;;0.52;0.52;;;20.20;63.80;;;;;;4920437;29;20094;-52
2022/10/13 01:41:03;;;;;;;0.40;0.40;;;20.20;64.00;;;;;;4931797;28;20067;-50
2022/10/13 01:43:36;;;;;;;0.60;0.60;;;20.20;63.90;;;;;;4915981;29;20040;-57
2022/10/13 01:46:16;;;;;;;0.73;0.73;;;20.20;64.70;;;;;;4919588;29;20053;-57
2022/10/13 01:48:42;;;;;;;0.50;0.50;;;20.20;63.80;;;;;;4915583;29;20090;-55
2022/10/13 01:51:09;;;;;;;0.55;0.50;;;20.20;63.80;;;;;;4918183;29;20070;-57
2022/10/13 01:53:35;;;;;;;0.70;0.45;;;20.20;63.80;;;;;;4934831;28;20054;-58
2022/10/13 01:56:00;;;;;;;0.85;0.50;;;20.20;63.80;;;;;;4922471;29;20055;-55
2022/10/13 01:58:28;;;;;;;0.40;0.40;;;20.20;63.90;;;;;;4935199;29;20050;-56
2022/10/13 02:01:29;;;;;;;0.30;0.30;;;20.20;64.20;;;;;;4915720;29;20485;-54
2022/10/13 02:04:11;;;;;;;0.40;0.40;;;20.10;64.20;;;;;;4933628;29;20058;-55
2022/10/13 02:06:53;;;;;;;0.50;0.50;;;20.20;64.10;;;;;;4917534;29;20067;-51
2022/10/13 02:09:22;;;;;;;0.40;0.40;;;20.20;64.00;;;;;;4916331;29;20234;-57
2022/10/13 02:12:00;;;;;;;0.50;0.40;;;20.20;63.90;;;;;;4939604;28;20047;-57
2022/10/13 02:14:29;;;;;;;0.47;0.47;;;20.10;63.80;;;;;;4921085;28;20047;-50
2022/10/13 02:16:56;;;;;;;0.57;0.57;;;20.10;63.80;;;;;;4950828;28;20072;-55
2022/10/13 02:19:21;;;;;;;0.60;0.60;;;20.20;63.90;;;;;;4937359;28;20091;-50
2022/10/13 02:21:47;;;;;;;0.30;0.30;;;20.20;64.70;;;;;;4934115;28;20080;-51
2022/10/13 02:24:12;;;;;;;0.70;0.70;;;20.20;64.70;;;;;;4950280;28;20110;-57
2022/10/13 02:26:38;;;;;;;0.45;0.45;;;20.20;63.90;;;;;;4934599;28;20047;-57
2022/10/13 02:29:08;;;;;;;0.50;0.45;;;20.10;64.00;;;;;;4953161;28;20081;-60
2022/10/13 02:31:34;;;;;;;0.40;0.30;;;20.10;63.90;;;;;;4931712;28;20059;-55
2022/10/13 02:33:59;;;;;;;0.40;0.40;;;20.10;64.80;;;;;;4933635;28;20625;-48
2022/10/13 02:36:25;;;;;;;0.40;0.40;;;20.10;63.80;;;;;;4930430;28;20050;-50
2022/10/13 02:38:50;;;;;;;0.40;0.30;;;20.10;64.20;;;;;;4933622;28;20119;-53
2022/10/13 02:41:16;;;;;;;0.47;0.40;;;20.10;64.80;;;;;;4932882;28;20533;-54
2022/10/13 02:43:41;;;;;;;0.75;0.47;;;20.10;64.20;;;;;;4935453;28;20556;-59
2022/10/13 02:46:07;;;;;;;0.75;0.50;;;20.10;64.80;;;;;;4935569;28;20046;-51
2022/10/13 02:48:32;;;;;;;0.50;0.30;;;20.10;64.10;;;;;;4933591;28;20039;-46
2022/10/13 02:50:58;;;;;;;0.50;0.50;;;20.20;64.20;;;;;;4933755;28;20035;-56
2022/10/13 02:53:23;;;;;;;0.30;0.30;;;20.20;64.10;;;;;;4933925;28;20491;-41
2022/10/13 02:55:49;;;;;;;0.30;0.30;;;20.20;64.10;;;;;;4937111;28;20035;-44
2022/10/13 02:58:14;;;;;;;0.50;0.32;;;20.10;64.00;;;;;;4953055;28;20051;-55
2022/10/13 03:00:40;;;;;;;0.40;0.40;;;20.20;63.80;;;;;;4951817;28;20134;-53
2022/10/13 03:03:06;;;;;;;0.40;0.40;;;20.10;63.90;;;;;;4954176;28;20426;-51
2022/10/13 03:05:31;;;;;;;0.20;0.20;;;20.20;64.10;;;;;;4954036;28;20069;-51
2022/10/13 03:07:57;;;;;;;0.30;0.30;;;20.10;64.20;;;;;;4952605;28;20513;-49
2022/10/13 03:10:22;;;;;;;0.40;0.40;;;20.20;63.80;;;;;;4953038;28;20085;-39
2022/10/13 03:12:48;;;;;;;0.30;0.30;;;20.20;63.80;;;;;;4955984;28;20048;-39
2022/10/13 03:15:14;;;;;;;0.50;0.50;;;20.20;63.70;;;;;;4954311;28;20039;-42
2022/10/13 03:17:39;;;;;;;0.57;0.50;;;20.10;63.80;;;;;;4954958;28;20048;-57
2022/10/13 03:20:06;;;;;;;0.40;0.30;;;20.10;64.10;;;;;;4952477;28;20570;-43
2022/10/13 03:22:31;;;;;;;0.30;0.30;;;20.10;64.00;;;;;;4953615;28;20067;-43
2022/10/13 03:24:57;;;;;;;0.30;0.30;;;20.10;65.00;;;;;;4948508;28;20094;-50
2022/10/13 03:27:23;;;;;;;0.70;0.40;;;20.10;64.10;;;;;;4951580;28;20039;-50
2022/10/13 03:29:49;;;;;;;0.40;0.40;;;20.10;64.10;;;;;;4951126;28;20520;-58
2022/10/13 03:32:15;;;;;;;0.30;0.30;;;20.10;64.20;;;;;;4954094;28;20039;-47
2022/10/13 03:34:40;;;;;;;0.45;0.45;;;20.10;64.70;;;;;;4954004;28;20577;-45
2022/10/13 03:37:06;;;;;;;0.30;0.30;;;20.10;64.00;;;;;;4953336;28;20119;-37
2022/10/13 03:39:31;;;;;;;0.40;0.40;;;20.10;64.20;;;;;;4954438;28;20446;-52
2022/10/13 03:41:57;;;;;;;0.98;0.40;;;20.10;64.10;;;;;;4953176;28;20047;-53
2022/10/13 03:44:23;;;;;;;0.70;0.38;;;20.10;64.20;;;;;;4954245;28;20057;-59
2022/10/13 03:46:48;;;;;;;0.32;0.32;;;20.10;64.10;;;;;;4951767;28;20065;-58
2022/10/13 03:49:14;;;;;;;0.73;0.50;;;20.00;64.40;;;;;;4954028;28;20510;-54
2022/10/13 03:51:39;;;;;;;0.77;0.50;;;20.10;64.30;;;;;;4954834;28;20036;-56
2022/10/13 03:54:05;;;;;;;0.47;0.43;;;20.10;64.10;;;;;;4952562;28;20514;-55
2022/10/13 03:56:30;;;;;;;0.30;0.30;;;20.10;64.30;;;;;;4953693;28;20588;-58
2022/10/13 03:58:58;;;;;;;0.43;0.40;;;20.00;64.10;;;;;;4951928;28;20043;-51
2022/10/13 04:01:25;;;;;;;0.80;0.38;;;20.10;64.00;;;;;;4951882;28;20545;-54
2022/10/13 04:03:54;;;;;;;0.50;0.50;;;20.10;64.00;;;;;;4950894;28;20045;-56
2022/10/13 04:06:20;;;;;;;0.43;0.43;;;20.10;64.50;;;;;;4955165;28;20792;-48
2022/10/13 04:08:45;;;;;;;0.50;0.50;;;20.10;64.20;;;;;;4951608;28;20050;-53
2022/10/13 04:11:12;;;;;;;1.00;0.50;;;20.10;64.10;;;;;;4951175;28;20035;-58
2022/10/13 04:13:38;;;;;;;0.30;0.30;;;20.10;64.00;;;;;;4952221;28;20505;-57
2022/10/13 04:16:05;;;;;;;0.38;0.38;;;20.10;64.10;;;;;;4945945;28;20058;-56
2022/10/13 04:18:31;;;;;;;0.30;0.30;;;20.10;64.10;;;;;;4952389;28;20510;-55
2022/10/13 04:20:56;;;;;;;0.40;0.40;;;20.10;64.10;;;;;;4953074;28;20067;-52
2022/10/13 04:23:22;;;;;;;0.57;0.40;;;20.10;64.20;;;;;;4964713;28;20049;-55
2022/10/13 04:25:48;;;;;;;0.30;0.30;;;20.10;64.20;;;;;;4953671;28;20123;-58
2022/10/13 04:28:13;;;;;;;0.40;0.40;;;20.10;64.20;;;;;;4955181;28;20053;-55
2022/10/13 04:30:39;;;;;;;0.35;0.30;;;20.10;64.40;;;;;;4955003;28;20404;-53
2022/10/13 04:33:05;;;;;;;0.63;0.30;;;20.00;64.20;;;;;;4953410;28;20129;-49
2022/10/13 04:35:30;;;;;;;0.28;0.28;;;20.00;64.40;;;;;;4954014;28;20043;-49
2022/10/13 04:37:58;;;;;;;0.30;0.30;;;20.00;64.40;;;;;;4954445;28;20126;-51
2022/10/13 04:40:25;;;;;;;1.55;0.73;;;20.10;64.20;;;;;;4955837;28;20506;-44
2022/10/13 04:42:50;;;;;;;0.35;0.35;;;20.10;64.40;;;;;;4953947;28;20050;-54
2022/10/13 04:45:16;;;;;;;0.30;0.30;;;20.10;64.40;;;;;;4954706;28;20387;-52
2022/10/13 04:47:42;;;;;;;0.17;0.17;;;20.00;64.30;;;;;;4952872;28;20069;-57
2022/10/13 04:50:08;;;;;;;0.20;0.20;;;20.00;64.20;;;;;;4953318;28;20043;-51
2022/10/13 04:52:34;;;;;;;0.30;0.30;;;20.00;64.40;;;;;;4957189;28;20046;-47
2022/10/13 04:54:59;;;;;;;0.30;0.20;;;20.10;64.40;;;;;;4952788;28;20057;-54
2022/10/13 04:57:25;;;;;;;0.30;0.30;;;20.00;65.40;;;;;;4953535;28;20432;-57
2022/10/13 04:59:50;;;;;;;0.30;0.30;;;20.00;64.30;;;;;;4956057;28;20039;-53
2022/10/13 05:02:16;;;;;;;0.20;0.20;;;20.10;63.80;;;;;;4606572;28;10000128;-47
2022/10/13 05:04:42;;;;;;;0.43;0.40;;;20.10;63.80;;;;;;4949309;28;20615;-53
2022/10/13 05:07:07;;;;;;;0.20;0.20;;;20.10;64.00;;;;;;4952760;28;20034;-47
2022/10/13 05:09:33;;;;;;;1.85;0.38;;;20.10;64.00;;;;;;4951934;28;20063;-53
2022/10/13 05:11:58;;;;;;;0.30;0.30;;;20.10;65.00;;;;;;4949455;28;20046;-49
2022/10/13 05:14:24;;;;;;;0.40;0.30;;;20.20;64.10;;;;;;4948896;28;20050;-54
2022/10/13 05:16:50;;;;;;;0.30;0.20;;;20.10;64.10;;;;;;4959481;28;20058;-48
2022/10/13 05:19:15;;;;;;;0.25;0.25;;;20.10;64.10;;;;;;4948802;28;20045;-46
2022/10/13 05:21:41;;;;;;;0.20;0.20;;;20.10;63.80;;;;;;4950165;28;20534;-49
2022/10/13 05:24:11;;;;;;;0.40;0.40;;;20.10;63.80;;;;;;4949344;28;20062;-51
2022/10/13 05:26:37;;;;;;;0.65;0.50;;;20.20;63.70;;;;;;4949509;28;20062;-47
2022/10/13 05:29:03;;;;;;;0.32;0.32;;;20.10;63.40;;;;;;4946105;28;20519;-55
2022/10/13 05:31:29;;;;;;;1.65;0.30;;;20.10;64.20;;;;;;4952259;28;20457;-48
2022/10/13 05:33:55;;;;;;;0.47;0.40;;;20.10;64.90;;;;;;4964310;28;22765;-59
2022/10/13 05:36:21;;;;;;;0.20;0.20;;;20.10;65.00;;;;;;4951016;28;20469;-43
2022/10/13 05:38:54;;;;;;;0.93;0.10;;;20.20;64.00;;;;;;4944968;28;20051;-43
2022/10/13 05:41:20;;;;;;;0.30;0.30;;;20.10;64.90;;;;;;4945118;28;20478;-44
2022/10/13 05:43:45;;;;;;;0.30;0.20;;;20.10;65.20;;;;;;4950691;28;20047;-44
2022/10/13 05:46:11;;;;;;;0.13;0.13;;;20.10;65.10;;;;;;4950557;28;20555;-43
2022/10/13 05:48:37;;;;;;;1.55;0.28;;;20.10;65.20;;;;;;4948206;28;20050;-42
2022/10/13 05:51:05;;;;;;;0.30;0.20;;;20.10;65.60;;;;;;4950410;28;20046;-41
2022/10/13 05:53:35;;;;;;;1.58;0.22;;;20.10;64.90;;;;;;4964459;28;20119;-43
2022/10/13 05:56:05;;;;;;;0.40;0.20;;;20.10;65.00;;;;;;4962717;28;20098;-43
2022/10/13 05:58:39;;;;;;;0.30;0.30;;;20.10;65.20;;;;;;4946443;28;20066;-44
2022/10/13 06:01:06;;;;;;;0.38;0.30;;;20.10;65.40;;;;;;4959551;28;20121;-45
2022/10/13 06:03:31;;;;;;;0.40;0.20;;;20.10;65.50;;;;;;4949214;28;20199;-43
2022/10/13 06:05:57;;;;;;;0.30;0.22;;;20.10;65.70;;;;;;4948938;28;20531;-43
2022/10/13 06:08:22;;;;;;;0.20;0.20;;;20.10;65.60;;;;;;4950190;28;20035;-44
2022/10/13 06:10:48;;;;;;;0.50;0.20;;;20.10;65.50;;;;;;4949210;28;20035;-43
2022/10/13 06:13:13;;;;;;;0.35;0.20;;;20.10;65.30;;;;;;4951096;28;20097;-43
2022/10/13 06:15:39;;;;;;;0.40;0.30;;;20.10;65.30;;;;;;4948455;28;20036;-44
2022/10/13 06:18:08;;;;;;;0.20;0.20;;;20.10;65.30;;;;;;4951061;28;20037;-44
2022/10/13 06:20:34;;;;;;;0.20;0.20;;;20.20;65.30;;;;;;4947295;28;20090;-43
2022/10/13 06:22:59;;;;;;;0.38;0.38;;;20.10;65.70;;;;;;4978633;28;20059;-43
2022/10/13 06:25:25;;;;;;;1.50;0.20;;;20.10;66.40;;;;;;4950869;28;20118;-46
2022/10/13 06:27:50;;;;;;;0.40;0.30;;;20.20;65.50;;;;;;4950119;28;20586;-50
2022/10/13 06:30:16;;;;;;;0.43;0.13;;;20.20;65.80;;;;;;4951965;28;20430;-46
2022/10/13 06:32:41;;;;;;;0.55;0.22;;;20.20;66.00;;;;;;4952689;28;20473;-34
2022/10/13 06:35:07;;;;;;;0.35;0.22;;;20.20;65.90;;;;;;4954359;28;20035;-39
2022/10/13 06:37:33;;;;;;;0.22;0.20;;;20.30;65.60;;;;;;4956213;28;20035;-47
2022/10/13 06:39:58;;;;;;;0.40;0.30;;;20.30;65.40;;;;;;4950140;28;20470;-31
2022/10/13 06:42:24;;;;;;;0.17;0.10;;;20.10;65.90;;;;;;4946345;28;20181;-27
2022/10/13 06:44:50;;;;;;;0.17;0.17;;;20.10;66.10;;;;;;4956587;28;20043;-32
2022/10/13 06:47:15;;;;;;;0.22;0.22;;;20.10;66.20;;;;;;4953526;28;20585;-30
2022/10/13 06:49:41;;;;;;;0.93;0.55;;;20.10;66.60;;;;;;4950825;28;20043;-31
2022/10/13 06:52:06;;;;;;;0.30;0.22;;;20.10;67.50;;;;;;4954999;28;20175;-27
2022/10/13 06:54:32;;;;;;;0.30;0.30;;;20.10;67.10;;;;;;4950811;28;20134;-28
2022/10/13 06:56:57;;;;;;;0.30;0.20;;;20.10;66.80;;;;;;4952051;28;20050;-54
2022/10/13 06:59:25;;;;;;;0.30;0.20;;;20.10;67.10;;;;;;4953833;28;20130;-47
2022/10/13 07:01:51;;;;;;;0.20;0.20;;;20.00;66.60;;;;;;4955081;28;20039;-38
2022/10/13 07:04:16;;;;;;;0.57;0.17;;;20.00;66.70;;;;;;4956422;28;20039;-30
2022/10/13 07:06:42;;;;;;;0.93;0.30;;;20.00;67.00;;;;;;4955663;28;20071;-32
2022/10/13 07:09:08;;;;;;;0.95;0.20;;;20.00;66.90;;;;;;4953340;28;20047;-31
2022/10/13 07:11:33;;;;;;;0.20;0.20;;;20.00;67.00;;;;;;4955109;28;20050;-27
2022/10/13 07:13:59;;;;;;;0.65;0.30;;;20.00;67.30;;;;;;4952928;28;20062;-33
2022/10/13 07:16:25;;;;;;;2.83;0.20;;;20.00;67.90;;;;;;4953700;28;20047;-29
2022/10/13 07:18:50;;;;;;;0.30;0.30;;;20.00;67.30;;;;;;4952351;28;20068;-28
2022/10/13 07:21:16;;;;;;;0.30;0.20;;;20.00;67.40;;;;;;4953687;28;20043;-26
2022/10/13 07:23:41;;;;;;;0.22;0.20;;;20.00;67.10;;;;;;4950385;28;20043;-30
2022/10/13 07:26:12;;;;;;;0.50;0.28;;;19.90;67.40;;;;;;4953358;28;20043;-29
2022/10/13 07:28:38;;;;;;;1.35;0.40;;;20.00;67.60;;;;;;4952161;28;20035;-30
2022/10/13 07:31:21;;;;;;;0.30;0.20;;;20.00;67.30;;;;;;4955466;28;20414;-27
2022/10/13 07:33:48;;;;;;;1.20;0.30;;;20.00;66.80;;;;;;4952880;28;20126;-31
2022/10/13 07:36:14;;;;;;;0.38;0.30;;;20.00;66.70;;;;;;4955124;28;20043;-31
2022/10/13 07:38:39;;;;;;;1.00;0.20;;;19.90;67.10;;;;;;4953049;28;20129;-27
2022/10/13 07:41:06;;;;;;;0.30;0.30;;;20.00;67.10;;;;;;4950604;28;20055;-30
2022/10/13 07:43:31;;;;;;;0.30;0.30;;;20.00;66.80;;;;;;4951117;28;20050;-28
2022/10/13 07:45:58;;;;;;;0.30;0.20;;;20.10;66.80;;;;;;4954534;28;20035;-25
2022/10/13 07:48:24;;;;;;;0.22;0.20;;;20.10;66.50;;;;;;4953771;28;20984;-26
2022/10/13 07:50:50;;;;;;;0.30;0.30;;;20.10;66.50;;;;;;4952638;28;20042;-31
2022/10/13 07:53:15;;;;;;;0.20;0.10;;;20.10;66.50;;;;;;4953351;28;20028;-42
2022/10/13 07:55:41;;;;;;;0.55;0.30;;;20.10;67.90;;;;;;4958676;28;20055;-30
2022/10/13 07:58:06;;;;;;;0.40;0.40;;;20.10;66.90;;;;;;4955176;28;20536;-55
2022/10/13 08:00:32;;;;;;;1.33;0.40;;;20.10;67.10;;;;;;4974401;28;20038;-56
2022/10/13 08:02:58;;;;;;;0.20;0.10;;;20.00;66.80;;;;;;4958477;28;20049;-35
2022/10/13 08:05:23;;;;;;;0.25;0.20;;;20.10;66.50;;;;;;4958359;28;20488;-30
2022/10/13 08:07:49;;;;;;;0.52;0.15;;;20.10;66.60;;;;;;4954950;28;20043;-32
2022/10/13 08:10:14;;;;;;;0.65;0.20;;;20.10;66.80;;;;;;4958224;28;20043;-34
2022/10/13 08:12:40;;;;;;;0.38;0.30;;;20.10;66.80;;;;;;4955025;28;20071;-30
2022/10/13 08:15:07;;;;;;;0.50;0.20;;;20.10;66.50;;;;;;4956395;28;20043;-26
2022/10/13 08:17:32;;;;;;;0.15;0.15;;;20.10;67.10;;;;;;4958045;28;20490;-30
2022/10/13 08:19:58;;;;;;;0.25;0.20;;;20.10;66.40;;;;;;4956453;28;20036;-33
2022/10/13 08:22:24;;;;;;;0.32;0.30;;;20.10;66.50;;;;;;4955969;28;20130;-37
2022/10/13 08:24:49;;;;;;;0.50;0.50;;;20.10;66.50;;;;;;4956423;28;20035;-30
2022/10/13 08:27:20;;;;;;;0.10;0.10;;;20.10;66.00;;;;;;4958586;28;20454;-28
2022/10/13 08:29:46;;;;;;;0.20;0.20;;;20.10;66.00;;;;;;4966783;28;20410;-26
2022/10/13 08:32:11;;;;;;;0.40;0.20;;;20.10;66.50;;;;;;4953817;28;20038;-31
2022/10/13 08:34:37;;;;;;;0.28;0.28;;;20.10;67.00;;;;;;4957041;28;20039;-41
2022/10/13 08:37:02;;;;;;;0.52;0.30;;;20.20;66.00;;;;;;4955750;28;20114;-30
2022/10/13 08:39:29;;;;;;;0.15;0.15;;;20.20;66.00;;;;;;4958613;28;20469;-33
2022/10/13 08:41:56;;;;;;;0.20;0.20;;;20.20;65.90;;;;;;4955611;28;20502;-40
2022/10/13 08:44:37;;;;;;;0.15;0.15;;;20.20;65.80;;;;;;4956709;28;20035;-30
2022/10/13 08:47:25;;;;;;;0.50;0.25;;;20.20;66.00;;;;;;4952914;28;20462;-34
2022/10/13 08:49:51;;;;;;;0.20;0.20;;;20.20;65.70;;;;;;4957928;28;20031;-35
2022/10/13 08:52:22;;;;;;;0.20;0.20;;;20.20;65.90;;;;;;4954519;28;20468;-31
2022/10/13 08:54:48;;;;;;;0.20;0.20;;;20.20;65.70;;;;;;4949627;28;20046;-29
2022/10/13 08:57:13;;;;;;;0.25;0.20;;;20.20;65.60;;;;;;4973914;28;20418;-32
2022/10/13 08:59:39;;;;;;;0.43;0.25;;;20.20;65.50;;;;;;4939745;28;20121;-32
2022/10/13 09:02:13;;;;;;;0.17;0.10;;;20.20;65.60;;;;;;4954019;28;20054;-31
2022/10/13 09:04:40;;;;;;;0.30;0.30;;;20.20;65.40;;;;;;4952801;28;20509;-30
2022/10/13 09:07:08;;;;;;;0.15;0.15;;;20.20;65.90;;;;;;4959787;28;20031;-34
2022/10/13 09:09:35;;;;;;;0.68;0.32;;;20.20;65.60;;;;;;4955484;28;20038;-34
2022/10/13 09:12:01;;;;;;;0.20;0.10;;;20.20;65.80;;;;;;4956402;28;20043;-56
2022/10/13 09:14:36;;;;;;;0.22;0.10;;;20.20;65.50;;;;;;4958223;28;20036;-39
2022/10/13 09:17:21;;;;;;;0.20;0.20;;;20.30;65.50;;;;;;4951300;28;20042;-37
2022/10/13 09:20:14;;;;;;;0.20;0.20;;;20.20;65.50;;;;;;4951169;28;20453;-33
2022/10/13 09:22:41;;;;;;;0.30;0.30;;;20.20;65.30;;;;;;4957638;28;20117;-30
2022/10/13 09:25:06;;;;;;;0.30;0.20;;;20.20;65.70;;;;;;4954180;28;20039;-29
2022/10/13 09:27:47;;;;;;;0.65;0.20;;;20.20;65.60;;;;;;4958527;28;20057;-32
2022/10/13 09:30:24;;;;;;;0.25;0.20;;;20.20;65.30;;;;;;4947737;28;20035;-29
2022/10/13 09:32:49;;;;;;;0.20;0.20;;;20.20;65.50;;;;;;4956702;28;20043;-54
2022/10/13 09:35:20;;;;;;;0.20;0.20;;;20.20;65.50;;;;;;4954605;28;20097;-33
2022/10/13 09:37:45;;;;;;;0.20;0.20;;;20.20;65.50;;;;;;4955853;28;20051;-39
2022/10/13 09:40:31;;;;;;;0.20;0.20;;;20.20;65.40;;;;;;4935940;28;20116;-27
2022/10/13 09:42:57;;;;;;;0.17;0.17;;;20.20;65.30;;;;;;4955284;28;20130;-30
2022/10/13 09:45:23;;;;;;;0.28;0.20;;;20.20;65.30;;;;;;4953197;28;20586;-53
2022/10/13 09:47:54;;;;;;;0.98;0.30;;;20.20;65.20;;;;;;4955102;28;20051;-31
2022/10/13 09:50:22;;;;;;;0.25;0.25;;;20.20;65.60;;;;;;4961974;28;20455;-54
2022/10/13 09:52:48;;;;;;;0.22;0.20;;;20.20;65.40;;;;;;4954194;28;20039;-36
2022/10/13 09:55:32;;;;;;;0.63;0.35;;;20.20;65.40;;;;;;4970956;28;20034;-33
2022/10/13 09:58:18;;;;;;;;;;;20.20;65.30;;;;;;4952698;28;20054;-28
2022/10/13 10:00:44;;;;;;;0.22;0.22;;;20.20;65.30;;;;;;4950808;28;19922;-28
2022/10/13 10:03:37;;;;;;;0.20;0.17;;;20.20;65.30;;;;;;4953883;28;20537;-28
2022/10/13 10:06:06;;;;;;;0.38;0.22;;;20.20;65.30;;;;;;4950360;28;20116;-38
2022/10/13 10:08:58;;;;;;;0.30;0.30;;;20.20;65.30;;;;;;4938191;28;20054;-57
2022/10/13 10:11:31;;;;;;;0.68;0.20;;;20.20;65.40;;;;;;4957338;28;20035;-52
2022/10/13 10:13:57;;;;;;;0.20;0.20;;;20.20;65.60;;;;;;4948861;28;20071;-34
2022/10/13 10:16:30;;;;;;;0.50;0.15;;;20.20;65.80;;;;;;4970129;28;20454;-30
2022/10/13 10:19:19;;;;;;;0.30;0.30;;;20.20;65.30;;;;;;4938590;28;20049;-51
2022/10/13 10:21:51;;;;;;;0.20;0.20;;;20.30;65.20;;;;;;4951533;28;20039;-30
2022/10/13 10:24:52;;;;;;;0.40;0.40;;;20.20;65.20;;;;;;4955993;28;20409;-26
2022/10/13 10:27:33;;;;;;;0.20;0.20;;;20.20;65.20;;;;;;4951914;28;20074;-33
2022/10/13 10:30:03;;;;;;;0.35;0.20;;;20.20;65.20;;;;;;4952868;28;20054;-33
2022/10/13 10:32:56;;;;;;;1.10;0.20;;;20.10;65.20;;;;;;4959534;28;20117;-35
2022/10/13 10:35:28;;;;;;;0.15;0.10;;;20.20;65.50;;;;;;4950453;28;20048;-28
2022/10/13 10:38:32;;;;;;;0.30;0.20;;;20.20;65.30;;;;;;4952473;28;20444;-28
2022/10/13 10:41:12;;;;;;;0.30;0.30;;;20.20;65.30;;;;;;4952071;28;20042;-36
2022/10/13 10:44:23;;;;;;;0.22;0.22;;;20.20;66.10;;;;;;4954939;28;20035;-33
2022/10/13 10:46:50;;;;;;;0.50;0.20;;;20.20;65.20;;;;;;4952856;28;20544;-38
2022/10/13 10:49:34;;;;;;;0.30;0.20;;;20.20;65.30;;;;;;4967867;28;20053;-34
2022/10/13 10:52:02;;;;;;;0.52;0.22;;;20.20;65.30;;;;;;4953005;28;20056;-27
2022/10/13 10:54:43;;;;;;;0.22;0.22;;;20.20;65.20;;;;;;4970136;28;20038;-35
2022/10/13 10:57:08;;;;;;;0.30;0.30;;;20.20;65.10;;;;;;4955937;28;20050;-32
2022/10/13 10:59:44;;;;;;;0.25;0.25;;;20.20;65.20;;;;;;4953292;28;20426;-33
2022/10/13 11:02:37;;;;;;;0.17;0.17;;;20.20;65.10;;;;;;4954622;28;20051;-35
2022/10/13 11:05:03;;;;;;;0.30;0.30;;;20.20;65.10;;;;;;4953013;28;20449;-36
2022/10/13 11:07:28;;;;;;;0.22;0.10;;;20.20;65.30;;;;;;4955453;28;20053;-36
2022/10/13 11:09:56;;;;;;;0.13;0.10;;;20.20;65.30;;;;;;4952814;28;20442;-37
2022/10/13 11:12:21;;;;;;;0.50;0.50;;;20.20;65.30;;;;;;4951474;28;20047;-42
2022/10/13 11:14:53;;;;;;;0.20;0.20;;;20.20;65.20;;;;;;4954502;28;20039;-29
2022/10/13 11:17:48;;;;;;;0.10;0.10;;;20.20;65.00;;;;;;4954577;28;20644;-34
2022/10/13 11:20:19;;;;;;;0.20;0.20;;;20.20;65.00;;;;;;4948707;28;20050;-36
2022/10/13 11:23:11;;;;;;;0.22;0.20;;;20.20;65.00;;;;;;4953812;28;20051;-31
2022/10/13 11:25:45;;;;;;;0.20;0.20;;;20.20;65.10;;;;;;4948001;28;20043;-26
2022/10/13 11:28:41;;;;;;;0.30;0.30;;;20.20;65.00;;;;;;4986702;28;20501;-34
2022/10/13 11:31:12;;;;;;;0.30;0.30;;;20.20;65.00;;;;;;4953767;28;20697;-29
2022/10/13 11:33:38;;;;;;;0.32;0.30;;;20.20;66.10;;;;;;4958500;28;20528;-41
2022/10/13 11:36:41;;;;;;;0.30;0.20;;;20.10;65.70;;;;;;4958938;28;20043;-43
2022/10/13 11:39:27;;;;;;;0.22;0.17;;;20.10;66.50;;;;;;4956737;28;20121;-36
2022/10/13 11:42:02;;;;;;;0.30;0.10;;;20.20;65.30;;;;;;4954985;28;20053;-27
2022/10/13 11:44:30;;;;;;;;;;;20.20;65.60;;;;;;4953402;28;20055;-37
2022/10/13 11:47:25;;;;;;;0.40;0.40;;;20.10;66.20;;;;;;4986674;28;19939;-37
2022/10/13 11:50:13;;;;;;;0.70;0.50;;;20.00;67.80;;;;;;4954060;28;20035;-30
2022/10/13 11:52:42;;;;;;;0.65;0.50;;;20.00;67.90;;;;;;4972335;28;20058;-33
2022/10/13 11:55:13;;;;;;;0.50;0.32;;;20.00;66.70;;;;;;4955584;28;20093;-37
2022/10/13 11:57:39;;;;;;;0.73;0.40;;;20.10;67.10;;;;;;4952661;28;20055;-36
2022/10/13 12:00:15;;;;;;;0.70;0.70;;;20.10;67.80;;;;;;4959490;28;20481;-33
2022/10/13 12:02:51;;;;;;;0.95;0.65;;;20.10;68.00;;;;;;4957696;28;20086;-33
2022/10/13 12:05:24;;;;;;;0.65;0.63;;;20.00;69.50;;;;;;4956468;28;20102;-54
2022/10/13 12:07:51;;;;;;;0.70;0.70;;;20.00;68.20;;;;;;4955117;28;20035;-36
2022/10/13 12:10:28;;;;;;;0.95;0.93;;;20.00;69.50;;;;;;4953659;28;20517;-32
2022/10/13 12:12:54;;;;;;;0.82;0.82;;;20.00;68.50;;;;;;4957076;28;20110;-31
2022/10/13 12:15:41;;;;;;;0.93;0.52;;;20.00;68.60;;;;;;4954600;28;20047;-37
2022/10/13 12:18:24;;;;;;;1.13;0.75;;;20.00;69.00;;;;;;4954275;28;20046;-32
2022/10/13 12:20:54;;;;;;;0.75;0.50;;;20.00;68.60;;;;;;4949547;28;20043;-37
2022/10/13 12:23:19;;;;;;;0.50;0.50;;;20.00;68.60;;;;;;4955260;28;20134;-29
2022/10/13 12:25:47;;;;;;;0.98;0.75;;;20.00;68.30;;;;;;4960082;28;20593;-31
2022/10/13 12:28:17;;;;;;;0.60;0.57;;;19.90;68.20;;;;;;4958321;28;20043;-32
2022/10/13 12:30:44;;;;;;;0.68;0.50;;;20.00;67.90;;;;;;4956204;28;20038;-27
2022/10/13 12:33:24;;;;;;;0.50;0.50;;;20.00;67.80;;;;;;4971842;28;20035;-57
2022/10/13 12:35:50;;;;;;;0.45;0.40;;;20.00;67.80;;;;;;4953710;28;20529;-42
2022/10/13 12:38:19;;;;;;;0.40;0.32;;;20.00;67.60;;;;;;4954898;28;20040;-57
2022/10/13 12:40:48;;;;;;;0.40;0.40;;;20.10;67.50;;;;;;4939404;28;20036;-36
2022/10/13 12:43:17;;;;;;;0.95;0.40;;;20.10;67.60;;;;;;4971319;28;20462;-55
2022/10/13 12:45:43;;;;;;;0.43;0.43;;;20.10;67.40;;;;;;4955753;28;20047;-53
2022/10/13 12:48:28;;;;;;;0.40;0.40;;;20.10;67.30;;;;;;4955113;28;20407;-34
2022/10/13 12:50:53;;;;;;;0.40;0.30;;;20.10;68.30;;;;;;4953022;28;20034;-30
2022/10/13 12:53:26;;;;;;;0.40;0.40;;;20.10;67.30;;;;;;4939479;28;20035;-34
2022/10/13 12:55:59;;;;;;;0.20;0.20;;;20.10;67.10;;;;;;4954409;28;20058;-44
2022/10/13 12:58:34;;;;;;;0.30;0.30;;;20.20;66.90;;;;;;4940579;28;20129;-29
2022/10/13 13:01:11;;;;;;;0.90;0.45;;;20.10;66.90;;;;;;4956831;28;20491;-31
2022/10/13 13:03:37;;;;;;;0.73;0.30;;;20.10;66.80;;;;;;4950899;28;20043;-29